sensor_id;sensor_type;location;lat;lon;timestamp;pressure;altitude;pressure_sealevel;temperature;humidity
66887;BME280;67239;51.680;5.976;2023-02-18T00:01:36;102115.66;;;10.58;97.77
66887;BME280;67239;51.680;5.976;2023-02-18T00:04:03;102115.66;;;10.58;98.03
66887;BME280;67239;51.680;5.976;2023-02-18T00:06:32;102114.75;;;10.61;98.13
66887;BME280;67239;51.680;5.976;2023-02-18T00:09:01;102119.97;;;10.64;97.95
66887;BME280;67239;51.680;5.976;2023-02-18T00:11:32;102108.56;;;10.63;97.81
66887;BME280;67239;51.680;5.976;2023-02-18T00:14:03;102108.53;;;10.65;97.64
66887;BME280;67239;51.680;5.976;2023-02-18T00:16:32;102107.72;;;10.63;97.49
66887;BME280;67239;51.680;5.976;2023-02-18T00:19:01;102099.78;;;10.64;97.58
66887;BME280;67239;51.680;5.976;2023-02-18T00:21:32;102094.50;;;10.64;97.42
66887;BME280;67239;51.680;5.976;2023-02-18T00:24:00;102082.16;;;10.65;97.65
66887;BME280;67239;51.680;5.976;2023-02-18T00:26:27;102090.97;;;10.64;97.43
66887;BME280;67239;51.680;5.976;2023-02-18T00:28:54;102089.25;;;10.63;97.85
66887;BME280;67239;51.680;5.976;2023-02-18T00:33:52;102083.94;;;10.64;97.81
66887;BME280;67239;51.680;5.976;2023-02-18T00:36:21;102080.41;;;10.65;98.08
66887;BME280;67239;51.680;5.976;2023-02-18T00:38:51;102078.66;;;10.66;98.09
66887;BME280;67239;51.680;5.976;2023-02-18T00:41:22;102081.28;;;10.66;97.60
66887;BME280;67239;51.680;5.976;2023-02-18T00:43:50;102064.56;;;10.67;97.50
66887;BME280;67239;51.680;5.976;2023-02-18T00:46:19;102059.28;;;10.67;97.62
66887;BME280;67239;51.680;5.976;2023-02-18T00:48:46;102060.16;;;10.69;97.71
66887;BME280;67239;51.680;5.976;2023-02-18T00:51:14;102060.16;;;10.69;97.70
66887;BME280;67239;51.680;5.976;2023-02-18T00:53:41;102064.53;;;10.68;97.95
66887;BME280;67239;51.680;5.976;2023-02-18T00:56:08;102061.91;;;10.70;97.83
66887;BME280;67239;51.680;5.976;2023-02-18T00:58:36;102050.47;;;10.71;98.04
66887;BME280;67239;51.680;5.976;2023-02-18T01:01:05;102049.56;;;10.70;97.69
66887;BME280;67239;51.680;5.976;2023-02-18T01:03:36;102060.13;;;10.72;97.74
66887;BME280;67239;51.680;5.976;2023-02-18T01:06:05;102043.41;;;10.71;97.93
66887;BME280;67239;51.680;5.976;2023-02-18T01:08:34;102040.78;;;10.71;97.40
66887;BME280;67239;51.680;5.976;2023-02-18T01:11:03;102039.88;;;10.72;97.77
66887;BME280;67239;51.680;5.976;2023-02-18T01:13:31;102036.38;;;10.74;97.50
66887;BME280;67239;51.680;5.976;2023-02-18T01:15:58;102042.53;;;10.72;97.69
66887;BME280;67239;51.680;5.976;2023-02-18T01:18:28;102046.03;;;10.75;97.77
66887;BME280;67239;51.680;5.976;2023-02-18T01:20:55;102044.25;;;10.77;97.38
66887;BME280;67239;51.680;5.976;2023-02-18T01:23:23;102036.34;;;10.75;97.58
66887;BME280;67239;51.680;5.976;2023-02-18T01:25:51;102038.97;;;10.75;97.72
66887;BME280;67239;51.680;5.976;2023-02-18T01:28:18;102038.13;;;10.75;97.93
66887;BME280;67239;51.680;5.976;2023-02-18T01:30:47;102031.06;;;10.75;97.67
66887;BME280;67239;51.680;5.976;2023-02-18T01:33:16;102030.19;;;10.75;98.02
66887;BME280;67239;51.680;5.976;2023-02-18T01:35:44;102020.53;;;10.74;97.93
66887;BME280;67239;51.680;5.976;2023-02-18T01:38:11;102020.50;;;10.75;97.94
66887;BME280;67239;51.680;5.976;2023-02-18T01:40:50;102020.53;;;10.74;98.13
66887;BME280;67239;51.680;5.976;2023-02-18T01:43:20;102012.66;;;10.72;98.36
66887;BME280;67239;51.680;5.976;2023-02-18T01:45:57;102012.66;;;10.72;98.57
66887;BME280;67239;51.680;5.976;2023-02-18T01:51:24;102023.19;;;10.70;98.80
66887;BME280;67239;51.680;5.976;2023-02-18T01:53:59;102014.41;;;10.71;98.76
66887;BME280;67239;51.680;5.976;2023-02-18T01:56:56;102016.16;;;10.72;98.82
66887;BME280;67239;51.680;5.976;2023-02-18T01:59:31;102011.78;;;10.70;98.77
66887;BME280;67239;51.680;5.976;2023-02-18T02:02:03;102011.78;;;10.68;98.82
66887;BME280;67239;51.680;5.976;2023-02-18T02:04:33;102018.00;;;10.67;99.05
66887;BME280;67239;51.680;5.976;2023-02-18T02:07:01;102006.56;;;10.65;99.29
66887;BME280;67239;51.680;5.976;2023-02-18T02:09:30;102010.09;;;10.64;99.46
66887;BME280;67239;51.680;5.976;2023-02-18T02:12:35;102007.50;;;10.63;99.59
66887;BME280;67239;51.680;5.976;2023-02-18T02:15:22;102004.88;;;10.60;99.62
66887;BME280;67239;51.680;5.976;2023-02-18T02:27:12;101985.72;;;10.47;100.00
66887;BME280;67239;51.680;5.976;2023-02-18T02:35:36;101980.47;;;10.40;100.00
66887;BME280;67239;51.680;5.976;2023-02-18T02:38:22;101963.81;;;10.38;100.00
66887;BME280;67239;51.680;5.976;2023-02-18T02:44:05;101954.16;;;10.36;100.00
66887;BME280;67239;51.680;5.976;2023-02-18T02:46:40;101954.16;;;10.36;100.00
66887;BME280;67239;51.680;5.976;2023-02-18T02:49:15;101948.00;;;10.34;100.00
66887;BME280;67239;51.680;5.976;2023-02-18T02:52:07;101940.09;;;10.34;100.00
66887;BME280;67239;51.680;5.976;2023-02-18T02:54:39;101934.00;;;10.32;100.00
66887;BME280;67239;51.680;5.976;2023-02-18T02:59:55;101912.06;;;10.30;100.00
66887;BME280;67239;51.680;5.976;2023-02-18T03:16:12;101882.19;;;10.31;100.00
66887;BME280;67239;51.680;5.976;2023-02-18T03:21:32;101869.00;;;10.31;100.00
66887;BME280;67239;51.680;5.976;2023-02-18T03:24:13;101869.00;;;10.31;100.00
66887;BME280;67239;51.680;5.976;2023-02-18T03:26:56;101861.97;;;10.30;100.00
66887;BME280;67239;51.680;5.976;2023-02-18T03:29:30;101851.44;;;10.30;100.00
66887;BME280;67239;51.680;5.976;2023-02-18T03:32:02;101853.19;;;10.29;100.00
66887;BME280;67239;51.680;5.976;2023-02-18T03:34:37;101857.59;;;10.29;100.00
66887;BME280;67239;51.680;5.976;2023-02-18T03:37:08;101848.81;;;10.28;100.00
66887;BME280;67239;51.680;5.976;2023-02-18T03:39:40;101848.88;;;10.25;100.00
66887;BME280;67239;51.680;5.976;2023-02-18T03:42:12;101841.81;;;10.27;100.00
66887;BME280;67239;51.680;5.976;2023-02-18T03:44:39;101829.53;;;10.26;100.00
66887;BME280;67239;51.680;5.976;2023-02-18T03:47:07;101829.53;;;10.24;100.00
66887;BME280;67239;51.680;5.976;2023-02-18T03:49:34;101834.78;;;10.24;100.00
66887;BME280;67239;51.680;5.976;2023-02-18T03:52:01;101830.41;;;10.25;100.00
66887;BME280;67239;51.680;5.976;2023-02-18T03:54:28;101821.63;;;10.24;100.00
66887;BME280;67239;51.680;5.976;2023-02-18T03:56:55;101814.56;;;10.26;100.00
66887;BME280;67239;51.680;5.976;2023-02-18T03:59:22;101813.72;;;10.24;100.00
66887;BME280;67239;51.680;5.976;2023-02-18T04:01:49;101811.06;;;10.24;100.00
66887;BME280;67239;51.680;5.976;2023-02-18T04:04:16;101817.25;;;10.25;100.00
66887;BME280;67239;51.680;5.976;2023-02-18T04:06:43;101814.59;;;10.23;100.00
66887;BME280;67239;51.680;5.976;2023-02-18T04:09:10;101806.69;;;10.23;100.00
66887;BME280;67239;51.680;5.976;2023-02-18T04:11:38;101804.06;;;10.25;100.00
66887;BME280;67239;51.680;5.976;2023-02-18T04:14:07;101799.66;;;10.25;100.00
66887;BME280;67239;51.680;5.976;2023-02-18T04:16:34;101794.38;;;10.27;100.00
66887;BME280;67239;51.680;5.976;2023-02-18T04:19:01;101788.22;;;10.26;100.00
66887;BME280;67239;51.680;5.976;2023-02-18T04:21:29;101796.16;;;10.23;100.00
66887;BME280;67239;51.680;5.976;2023-02-18T04:23:56;101787.44;;;10.21;100.00
66887;BME280;67239;51.680;5.976;2023-02-18T04:26:23;101777.78;;;10.20;100.00
66887;BME280;67239;51.680;5.976;2023-02-18T04:28:50;101786.56;;;10.19;100.00
66887;BME280;67239;51.680;5.976;2023-02-18T04:31:17;101784.78;;;10.20;100.00
66887;BME280;67239;51.680;5.976;2023-02-18T04:33:45;101783.91;;;10.21;100.00
66887;BME280;67239;51.680;5.976;2023-02-18T04:36:12;101769.91;;;10.17;100.00
66887;BME280;67239;51.680;5.976;2023-02-18T04:38:39;101777.81;;;10.17;100.00
66887;BME280;67239;51.680;5.976;2023-02-18T04:41:07;101781.31;;;10.16;100.00
66887;BME280;67239;51.680;5.976;2023-02-18T04:43:34;101786.59;;;10.16;100.00
66887;BME280;67239;51.680;5.976;2023-02-18T04:46:01;101780.44;;;10.17;100.00
66887;BME280;67239;51.680;5.976;2023-02-18T04:48:29;101779.56;;;10.18;100.00
66887;BME280;67239;51.680;5.976;2023-02-18T04:50:56;101774.25;;;10.20;100.00
66887;BME280;67239;51.680;5.976;2023-02-18T04:53:23;101775.13;;;10.19;100.00
66887;BME280;67239;51.680;5.976;2023-02-18T04:55:51;101772.50;;;10.20;100.00
66887;BME280;67239;51.680;5.976;2023-02-18T04:58:19;101768.13;;;10.18;100.00
66887;BME280;67239;51.680;5.976;2023-02-18T05:00:47;101761.97;;;10.20;100.00
66887;BME280;67239;51.680;5.976;2023-02-18T05:03:14;101764.59;;;10.20;100.00
66887;BME280;67239;51.680;5.976;2023-02-18T05:05:42;101761.97;;;10.20;100.00
66887;BME280;67239;51.680;5.976;2023-02-18T05:08:09;101775.13;;;10.19;100.00
66887;BME280;67239;51.680;5.976;2023-02-18T05:10:37;101771.66;;;10.18;100.00
66887;BME280;67239;51.680;5.976;2023-02-18T05:13:04;101755.81;;;10.20;100.00
66887;BME280;67239;51.680;5.976;2023-02-18T05:15:31;101754.94;;;10.18;100.00
66887;BME280;67239;51.680;5.976;2023-02-18T05:17:58;101755.88;;;10.17;100.00
66887;BME280;67239;51.680;5.976;2023-02-18T05:20:26;101753.25;;;10.14;100.00
66887;BME280;67239;51.680;5.976;2023-02-18T05:22:53;101752.38;;;10.13;100.00
66887;BME280;67239;51.680;5.976;2023-02-18T05:25:20;101733.94;;;10.15;100.00
66887;BME280;67239;51.680;5.976;2023-02-18T05:27:47;101729.59;;;10.12;100.00
66887;BME280;67239;51.680;5.976;2023-02-18T05:30:14;101725.13;;;10.14;100.00
66887;BME280;67239;51.680;5.976;2023-02-18T05:32:42;101725.13;;;10.16;100.00
66887;BME280;67239;51.680;5.976;2023-02-18T05:35:09;101730.38;;;10.17;100.00
66887;BME280;67239;51.680;5.976;2023-02-18T05:37:36;101730.41;;;10.14;100.00
66887;BME280;67239;51.680;5.976;2023-02-18T05:40:04;101720.78;;;10.12;100.00
66887;BME280;67239;51.680;5.976;2023-02-18T05:42:31;101719.91;;;10.13;100.00
66887;BME280;67239;51.680;5.976;2023-02-18T05:44:59;101710.31;;;10.07;100.00
66887;BME280;67239;51.680;5.976;2023-02-18T05:47:26;101717.34;;;10.08;100.00
66887;BME280;67239;51.680;5.976;2023-02-18T05:49:53;101704.19;;;10.06;100.00
66887;BME280;67239;51.680;5.976;2023-02-18T05:52:21;101713.00;;;10.05;100.00
66887;BME280;67239;51.680;5.976;2023-02-18T05:54:48;101710.34;;;10.04;100.00
66887;BME280;67239;51.680;5.976;2023-02-18T05:57:16;101697.19;;;10.05;100.00
66887;BME280;67239;51.680;5.976;2023-02-18T05:59:43;101706.84;;;10.05;100.00
66887;BME280;67239;51.680;5.976;2023-02-18T06:02:10;101703.34;;;10.04;100.00
66887;BME280;67239;51.680;5.976;2023-02-18T06:04:37;101701.59;;;10.03;100.00
66887;BME280;67239;51.680;5.976;2023-02-18T06:07:05;101697.19;;;10.04;100.00
66887;BME280;67239;51.680;5.976;2023-02-18T06:09:32;101698.97;;;10.03;100.00
66887;BME280;67239;51.680;5.976;2023-02-18T06:11:59;101702.44;;;10.04;100.00
66887;BME280;67239;51.680;5.976;2023-02-18T06:14:26;101707.72;;;10.04;100.00
66887;BME280;67239;51.680;5.976;2023-02-18T06:16:53;101707.78;;;10.01;100.00
66887;BME280;67239;51.680;5.976;2023-02-18T06:19:20;101715.69;;;10.01;100.00
66887;BME280;67239;51.680;5.976;2023-02-18T06:21:47;101715.69;;;10.01;100.00
66887;BME280;67239;51.680;5.976;2023-02-18T06:24:14;101715.69;;;10.01;100.00
66887;BME280;67239;51.680;5.976;2023-02-18T06:26:41;101704.28;;;9.99;100.00
66887;BME280;67239;51.680;5.976;2023-02-18T06:29:08;101709.56;;;9.99;100.00
66887;BME280;67239;51.680;5.976;2023-02-18T06:31:35;101712.19;;;9.99;100.00
66887;BME280;67239;51.680;5.976;2023-02-18T06:34:02;101690.25;;;10.00;100.00
66887;BME280;67239;51.680;5.976;2023-02-18T06:36:29;101698.13;;;9.98;100.00
66887;BME280;67239;51.680;5.976;2023-02-18T06:38:56;101689.38;;;9.98;100.00
66887;BME280;67239;51.680;5.976;2023-02-18T06:41:24;101688.50;;;9.99;100.00
66887;BME280;67239;51.680;5.976;2023-02-18T06:43:51;101692.00;;;9.98;100.00
66887;BME280;67239;51.680;5.976;2023-02-18T06:46:19;101686.78;;;9.96;100.00
66887;BME280;67239;51.680;5.976;2023-02-18T06:48:46;101682.38;;;9.97;100.00
66887;BME280;67239;51.680;5.976;2023-02-18T06:51:13;101686.78;;;9.96;100.00
66887;BME280;67239;51.680;5.976;2023-02-18T06:53:43;101692.03;;;9.96;100.00
66887;BME280;67239;51.680;5.976;2023-02-18T06:56:11;101698.16;;;9.97;100.00
66887;BME280;67239;51.680;5.976;2023-02-18T06:58:38;101693.78;;;9.95;100.00
66887;BME280;67239;51.680;5.976;2023-02-18T07:01:05;101695.53;;;9.97;100.00
66887;BME280;67239;51.680;5.976;2023-02-18T07:03:33;101698.16;;;9.97;100.00
66887;BME280;67239;51.680;5.976;2023-02-18T07:06:00;101708.72;;;9.97;100.00
66887;BME280;67239;51.680;5.976;2023-02-18T07:08:27;101705.22;;;9.94;100.00
66887;BME280;67239;51.680;5.976;2023-02-18T07:10:56;101714.88;;;9.95;100.00
66887;BME280;67239;51.680;5.976;2023-02-18T07:13:23;101707.84;;;9.94;100.00
66887;BME280;67239;51.680;5.976;2023-02-18T07:15:50;101702.59;;;9.94;100.00
66887;BME280;67239;51.680;5.976;2023-02-18T07:18:17;101716.66;;;9.95;100.00
66887;BME280;67239;51.680;5.976;2023-02-18T07:20:45;101706.03;;;9.98;100.00
66887;BME280;67239;51.680;5.976;2023-02-18T07:23:12;101700.78;;;9.98;100.00
66887;BME280;67239;51.680;5.976;2023-02-18T07:25:39;101698.13;;;9.98;100.00
66887;BME280;67239;51.680;5.976;2023-02-18T07:28:06;101701.66;;;9.97;100.00
66887;BME280;67239;51.680;5.976;2023-02-18T07:30:33;101713.97;;;9.97;100.00
66887;BME280;67239;51.680;5.976;2023-02-18T07:33:00;101714.00;;;9.95;100.00
66887;BME280;67239;51.680;5.976;2023-02-18T07:35:29;101703.47;;;9.93;100.00
66887;BME280;67239;51.680;5.976;2023-02-18T07:37:57;101711.41;;;9.92;100.00
66887;BME280;67239;51.680;5.976;2023-02-18T07:40:23;101725.44;;;9.92;100.00
66887;BME280;67239;51.680;5.976;2023-02-18T07:42:50;101725.47;;;9.91;100.00
66887;BME280;67239;51.680;5.976;2023-02-18T07:45:18;101725.47;;;9.91;100.00
66887;BME280;67239;51.680;5.976;2023-02-18T07:47:45;101725.47;;;9.91;100.00
66887;BME280;67239;51.680;5.976;2023-02-18T07:50:12;101735.16;;;9.90;100.00
66887;BME280;67239;51.680;5.976;2023-02-18T07:52:39;101731.69;;;9.87;100.00
66887;BME280;67239;51.680;5.976;2023-02-18T07:55:06;101729.06;;;9.85;100.00
66887;BME280;67239;51.680;5.976;2023-02-18T07:57:34;101731.63;;;9.90;100.00
66887;BME280;67239;51.680;5.976;2023-02-18T08:00:21;101736.88;;;9.91;100.00
66887;BME280;67239;51.680;5.976;2023-02-18T08:02:48;101735.16;;;9.90;100.00
66887;BME280;67239;51.680;5.976;2023-02-18T08:05:15;101735.97;;;9.92;100.00
66887;BME280;67239;51.680;5.976;2023-02-18T08:07:42;101742.09;;;9.96;100.00
66887;BME280;67239;51.680;5.976;2023-02-18T08:10:09;101734.19;;;9.96;100.00
66887;BME280;67239;51.680;5.976;2023-02-18T08:12:38;101735.88;;;10.00;100.00
66887;BME280;67239;51.680;5.976;2023-02-18T08:15:05;101732.31;;;10.04;100.00
66887;BME280;67239;51.680;5.976;2023-02-18T08:17:33;101740.16;;;10.07;99.71
66887;BME280;67239;51.680;5.976;2023-02-18T08:20:00;101740.16;;;10.09;99.91
66887;BME280;67239;51.680;5.976;2023-02-18T08:22:27;101741.91;;;10.08;98.60
66887;BME280;67239;51.680;5.976;2023-02-18T08:24:54;101749.78;;;10.12;98.90
66887;BME280;67239;51.680;5.976;2023-02-18T08:27:22;101751.47;;;10.17;98.85
66887;BME280;67239;51.680;5.976;2023-02-18T08:29:50;101741.66;;;10.27;98.51
66887;BME280;67239;51.680;5.976;2023-02-18T08:32:17;101738.00;;;10.36;98.65
66887;BME280;67239;51.680;5.976;2023-02-18T08:34:45;101733.47;;;10.47;98.12
66887;BME280;67239;51.680;5.976;2023-02-18T08:37:12;101735.19;;;10.51;98.00
66887;BME280;67239;51.680;5.976;2023-02-18T08:39:39;101739.50;;;10.57;97.60
66887;BME280;67239;51.680;5.976;2023-02-18T08:42:06;101735.00;;;10.62;97.42
66887;BME280;67239;51.680;5.976;2023-02-18T08:44:33;101721.69;;;10.68;96.43
66887;BME280;67239;51.680;5.976;2023-02-18T08:47:00;101735.75;;;10.70;95.11
66887;BME280;67239;51.680;5.976;2023-02-18T08:49:27;101731.28;;;10.76;94.83
66887;BME280;67239;51.680;5.976;2023-02-18T08:51:56;101732.13;;;10.78;94.74
66887;BME280;67239;51.680;5.976;2023-02-18T08:54:23;101730.38;;;10.77;94.16
66887;BME280;67239;51.680;5.976;2023-02-18T08:56:53;101733.00;;;10.77;92.05
66887;BME280;67239;51.680;5.976;2023-02-18T08:59:25;101749.72;;;10.76;92.56
66887;BME280;67239;51.680;5.976;2023-02-18T09:01:52;101736.53;;;10.76;92.23
66887;BME280;67239;51.680;5.976;2023-02-18T09:04:19;101735.66;;;10.75;92.25
66887;BME280;67239;51.680;5.976;2023-02-18T09:06:47;101733.91;;;10.74;91.27
66887;BME280;67239;51.680;5.976;2023-02-18T09:09:16;101729.56;;;10.73;91.52
66887;BME280;67239;51.680;5.976;2023-02-18T09:11:44;101748.03;;;10.73;91.15
66887;BME280;67239;51.680;5.976;2023-02-18T09:14:11;101744.50;;;10.72;90.65
66887;BME280;67239;51.680;5.976;2023-02-18T09:16:40;101744.53;;;10.69;90.74
66887;BME280;67239;51.680;5.976;2023-02-18T09:19:07;101742.84;;;10.67;91.67
66887;BME280;67239;51.680;5.976;2023-02-18T09:21:35;101743.72;;;10.67;91.69
66887;BME280;67239;51.680;5.976;2023-02-18T09:24:02;101750.78;;;10.65;91.88
66887;BME280;67239;51.680;5.976;2023-02-18T09:26:30;101754.34;;;10.63;91.93
66887;BME280;67239;51.680;5.976;2023-02-18T09:28:59;101749.06;;;10.61;92.14
66887;BME280;67239;51.680;5.976;2023-02-18T09:31:28;101747.31;;;10.62;91.98
66887;BME280;67239;51.680;5.976;2023-02-18T09:33:59;101735.94;;;10.60;91.13
66887;BME280;67239;51.680;5.976;2023-02-18T09:36:28;101743.06;;;10.53;91.43
66887;BME280;67239;51.680;5.976;2023-02-18T09:38:56;101737.00;;;10.46;91.20
66887;BME280;67239;51.680;5.976;2023-02-18T09:41:37;101744.09;;;10.43;91.49
66887;BME280;67239;51.680;5.976;2023-02-18T09:44:24;101738.00;;;10.36;92.12
66887;BME280;67239;51.680;5.976;2023-02-18T09:47:00;101754.81;;;10.29;92.50
66887;BME280;67239;51.680;5.976;2023-02-18T09:49:33;101753.03;;;10.29;92.67
66887;BME280;67239;51.680;5.976;2023-02-18T09:52:27;101750.41;;;10.29;92.05
66887;BME280;67239;51.680;5.976;2023-02-18T09:54:57;101757.47;;;10.25;92.08
66887;BME280;67239;51.680;5.976;2023-02-18T09:57:41;101766.31;;;10.23;92.03
66887;BME280;67239;51.680;5.976;2023-02-18T10:00:18;101756.63;;;10.23;92.55
66887;BME280;67239;51.680;5.976;2023-02-18T10:02:55;101744.31;;;10.27;92.31
66887;BME280;67239;51.680;5.976;2023-02-18T10:05:27;101747.84;;;10.26;92.37
66887;BME280;67239;51.680;5.976;2023-02-18T10:08:19;101746.06;;;10.26;92.25
66887;BME280;67239;51.680;5.976;2023-02-18T10:10:50;101745.16;;;10.28;92.20
66887;BME280;67239;51.680;5.976;2023-02-18T10:13:21;101749.56;;;10.27;92.14
66887;BME280;67239;51.680;5.976;2023-02-18T10:15:51;101760.06;;;10.32;91.64
66887;BME280;67239;51.680;5.976;2023-02-18T10:21:14;101756.56;;;10.30;90.45
66887;BME280;67239;51.680;5.976;2023-02-18T10:24:00;101762.78;;;10.24;90.80
66887;BME280;67239;51.680;5.976;2023-02-18T10:26:33;101777.78;;;10.20;91.08
66887;BME280;67239;51.680;5.976;2023-02-18T10:29:03;101773.38;;;10.18;91.01
66887;BME280;67239;51.680;5.976;2023-02-18T10:31:39;101777.81;;;10.17;91.26
66887;BME280;67239;51.680;5.976;2023-02-18T10:34:21;101769.94;;;10.16;91.01
66887;BME280;67239;51.680;5.976;2023-02-18T10:43:34;101765.50;;;10.19;89.54
66887;BME280;67239;51.680;5.976;2023-02-18T10:46:18;101785.63;;;10.23;89.81
66887;BME280;67239;51.680;5.976;2023-02-18T10:51:45;101796.13;;;10.26;90.34
66887;BME280;67239;51.680;5.976;2023-02-18T10:54:15;101796.09;;;10.30;90.27
66887;BME280;67239;51.680;5.976;2023-02-18T10:56:48;101801.31;;;10.31;90.41
66887;BME280;67239;51.680;5.976;2023-02-18T10:59:24;101802.22;;;10.32;90.13
66887;BME280;67239;51.680;5.976;2023-02-18T11:02:01;101800.53;;;10.24;91.09
66887;BME280;67239;51.680;5.976;2023-02-18T11:04:39;101796.19;;;10.22;91.40
66887;BME280;67239;51.680;5.976;2023-02-18T11:07:13;101800.63;;;10.18;92.16
66887;BME280;67239;51.680;5.976;2023-02-18T11:09:55;101804.19;;;10.16;92.68
66887;BME280;67239;51.680;5.976;2023-02-18T11:12:39;101797.09;;;10.18;93.25
66887;BME280;67239;51.680;5.976;2023-02-18T11:15:24;101796.25;;;10.17;93.67
66887;BME280;67239;51.680;5.976;2023-02-18T11:17:55;101796.31;;;10.13;94.02
66887;BME280;67239;51.680;5.976;2023-02-18T11:20:35;101796.34;;;10.09;94.28
66887;BME280;67239;51.680;5.976;2023-02-18T11:25:35;101795.53;;;10.03;95.09
66887;BME280;67239;51.680;5.976;2023-02-18T11:28:32;101798.25;;;10.00;95.38
66887;BME280;67239;51.680;5.976;2023-02-18T11:31:19;101803.47;;;10.01;95.87
66887;BME280;67239;51.680;5.976;2023-02-18T11:33:51;101802.63;;;9.99;96.54
66887;BME280;67239;51.680;5.976;2023-02-18T11:36:34;101794.75;;;9.98;96.51
66887;BME280;67239;51.680;5.976;2023-02-18T11:39:16;101785.94;;;10.00;96.72
66887;BME280;67239;51.680;5.976;2023-02-18T11:41:48;101793.84;;;10.00;97.14
66887;BME280;67239;51.680;5.976;2023-02-18T11:44:51;101785.09;;;9.97;97.51
66887;BME280;67239;51.680;5.976;2023-02-18T11:47:24;101779.84;;;9.95;97.49
66887;BME280;67239;51.680;5.976;2023-02-18T11:52:38;101781.56;;;9.98;98.25
66887;BME280;67239;51.680;5.976;2023-02-18T11:57:58;101792.09;;;9.99;98.37
66887;BME280;67239;51.680;5.976;2023-02-18T12:03:51;101781.44;;;10.10;98.68
66887;BME280;67239;51.680;5.976;2023-02-18T12:06:27;101776.94;;;10.17;98.81
66887;BME280;67239;51.680;5.976;2023-02-18T12:09:05;101778.53;;;10.29;98.90
66887;BME280;67239;51.680;5.976;2023-02-18T12:11:42;101766.94;;;10.44;99.06
66887;BME280;67239;51.680;5.976;2023-02-18T12:14:17;101764.97;;;10.58;98.38
66887;BME280;67239;51.680;5.976;2023-02-18T12:23:54;101752.81;;;10.99;96.95
66887;BME280;67239;51.680;5.976;2023-02-18T12:29:40;101751.13;;;10.97;96.49
66887;BME280;67239;51.680;5.976;2023-02-18T12:35:56;101755.63;;;10.92;95.60
66887;BME280;67239;51.680;5.976;2023-02-18T12:38:45;101757.38;;;10.93;95.52
66887;BME280;67239;51.680;5.976;2023-02-18T12:41:49;101758.19;;;10.95;95.59
66887;BME280;67239;51.680;5.976;2023-02-18T12:47:27;101754.50;;;11.05;95.29
66887;BME280;67239;51.680;5.976;2023-02-18T12:53:29;101754.38;;;11.13;94.67
66887;BME280;67239;51.680;5.976;2023-02-18T13:10:53;101758.63;;;11.22;93.82
66887;BME280;67239;51.680;5.976;2023-02-18T13:13:49;101767.22;;;11.31;92.83
66887;BME280;67239;51.680;5.976;2023-02-18T13:16:27;101767.09;;;11.39;92.82
66887;BME280;67239;51.680;5.976;2023-02-18T13:19:32;101774.06;;;11.42;91.72
66887;BME280;67239;51.680;5.976;2023-02-18T13:22:11;101766.91;;;11.48;91.02
66887;BME280;67239;51.680;5.976;2023-02-18T13:24:44;101767.66;;;11.55;90.36
66887;BME280;67239;51.680;5.976;2023-02-18T13:27:35;101763.94;;;11.65;90.45
66887;BME280;67239;51.680;5.976;2023-02-18T13:31:09;101760.25;;;11.74;90.52
66887;BME280;67239;51.680;5.976;2023-02-18T13:36:07;101772.66;;;11.69;89.52
66887;BME280;67239;51.680;5.976;2023-02-18T13:38:57;101776.25;;;11.65;88.81
66887;BME280;67239;51.680;5.976;2023-02-18T13:41:34;101766.63;;;11.64;89.00
66887;BME280;67239;51.680;5.976;2023-02-18T13:46:55;101764.88;;;11.63;89.11
66887;BME280;67239;51.680;5.976;2023-02-18T13:49:30;101756.97;;;11.61;89.00
66887;BME280;67239;51.680;5.976;2023-02-18T13:52:00;101764.06;;;11.59;89.53
66887;BME280;67239;51.680;5.976;2023-02-18T13:54:34;101764.06;;;11.59;89.41
66887;BME280;67239;51.680;5.976;2023-02-18T13:57:16;101763.22;;;11.57;89.02
66887;BME280;67239;51.680;5.976;2023-02-18T13:59:56;101762.28;;;11.60;89.07
66887;BME280;67239;51.680;5.976;2023-02-18T14:02:34;101770.16;;;11.61;89.33
66887;BME280;67239;51.680;5.976;2023-02-18T14:07:51;101765.78;;;11.62;88.59
66887;BME280;67239;51.680;5.976;2023-02-18T14:10:37;101766.75;;;11.56;87.98
66887;BME280;67239;51.680;5.976;2023-02-18T14:15:58;101779.13;;;11.54;87.99
66887;BME280;67239;51.680;5.976;2023-02-18T14:18:33;101764.22;;;11.52;88.63
66887;BME280;67239;51.680;5.976;2023-02-18T14:21:35;101772.09;;;11.53;88.49
66887;BME280;67239;51.680;5.976;2023-02-18T14:24:09;101759.81;;;11.50;88.72
66887;BME280;67239;51.680;5.976;2023-02-18T14:26:46;101771.25;;;11.53;88.75
66887;BME280;67239;51.680;5.976;2023-02-18T14:29:26;101764.16;;;11.53;88.48
66887;BME280;67239;51.680;5.976;2023-02-18T14:32:00;101767.69;;;11.54;88.10
66887;BME280;67239;51.680;5.976;2023-02-18T14:37:53;101782.56;;;11.58;87.10
66887;BME280;67239;51.680;5.976;2023-02-18T14:46:24;101786.47;;;11.82;86.80
66887;BME280;67239;51.680;5.976;2023-02-18T14:49:23;101776.56;;;11.93;86.58
66887;BME280;67239;51.680;5.976;2023-02-18T14:52:17;101782.69;;;11.95;86.30
66887;BME280;67239;51.680;5.976;2023-02-18T14:54:57;101776.56;;;11.95;85.41
66887;BME280;67239;51.680;5.976;2023-02-18T14:57:35;101766.84;;;11.95;85.74
66887;BME280;67239;51.680;5.976;2023-02-18T15:00:19;101773.00;;;11.98;84.82
66887;BME280;67239;51.680;5.976;2023-02-18T15:02:52;101784.31;;;12.03;84.87
66887;BME280;67239;51.680;5.976;2023-02-18T15:05:31;101787.75;;;12.08;83.81
66887;BME280;67239;51.680;5.976;2023-02-18T15:08:23;101783.22;;;12.15;83.18
66887;BME280;67239;51.680;5.976;2023-02-18T15:11:01;101783.22;;;12.15;84.12
66887;BME280;67239;51.680;5.976;2023-02-18T15:13:39;101776.09;;;12.17;84.64
66887;BME280;67239;51.680;5.976;2023-02-18T15:16:16;101778.63;;;12.23;83.27